sensor_id;sensor_type;location;lat;lon;timestamp;P1;durP1;ratioP1;P2;durP2;ratioP2
82022;SDS011;71575;49.908;18.356;2023-07-22T00:01:34;7.35;;;4.47;;
82022;SDS011;71575;49.908;18.356;2023-07-22T00:03:59;8.10;;;4.85;;
82022;SDS011;71575;49.908;18.356;2023-07-22T00:06:25;11.07;;;4.43;;
82022;SDS011;71575;49.908;18.356;2023-07-22T00:08:51;7.93;;;3.72;;
82022;SDS011;71575;49.908;18.356;2023-07-22T00:11:17;6.97;;;3.83;;
82022;SDS011;71575;49.908;18.356;2023-07-22T00:13:42;9.32;;;6.13;;
82022;SDS011;71575;49.908;18.356;2023-07-22T00:16:08;7.55;;;2.75;;
82022;SDS011;71575;49.908;18.356;2023-07-22T00:18:33;7.03;;;2.85;;
82022;SDS011;71575;49.908;18.356;2023-07-22T00:20:59;7.93;;;3.15;;
82022;SDS011;71575;49.908;18.356;2023-07-22T00:23:24;6.13;;;3.08;;
82022;SDS011;71575;49.908;18.356;2023-07-22T00:25:50;6.57;;;2.80;;
82022;SDS011;71575;49.908;18.356;2023-07-22T00:28:16;6.80;;;2.53;;
82022;SDS011;71575;49.908;18.356;2023-07-22T00:30:42;6.40;;;2.40;;
82022;SDS011;71575;49.908;18.356;2023-07-22T00:33:08;6.35;;;2.97;;
82022;SDS011;71575;49.908;18.356;2023-07-22T00:35:33;6.47;;;2.42;;
82022;SDS011;71575;49.908;18.356;2023-07-22T00:37:59;6.28;;;3.28;;
82022;SDS011;71575;49.908;18.356;2023-07-22T00:40:25;8.48;;;3.63;;
82022;SDS011;71575;49.908;18.356;2023-07-22T00:42:51;6.80;;;4.57;;
82022;SDS011;71575;49.908;18.356;2023-07-22T00:45:16;7.05;;;2.30;;
82022;SDS011;71575;49.908;18.356;2023-07-22T00:47:42;5.90;;;2.83;;
82022;SDS011;71575;49.908;18.356;2023-07-22T00:50:08;6.47;;;2.95;;
82022;SDS011;71575;49.908;18.356;2023-07-22T00:52:34;8.98;;;2.53;;
82022;SDS011;71575;49.908;18.356;2023-07-22T00:55:00;7.55;;;2.20;;
82022;SDS011;71575;49.908;18.356;2023-07-22T00:57:26;8.32;;;2.17;;
82022;SDS011;71575;49.908;18.356;2023-07-22T00:59:52;5.57;;;1.95;;
82022;SDS011;71575;49.908;18.356;2023-07-22T01:02:18;7.22;;;1.30;;
82022;SDS011;71575;49.908;18.356;2023-07-22T01:04:44;5.20;;;1.88;;
82022;SDS011;71575;49.908;18.356;2023-07-22T01:07:09;5.63;;;2.13;;
82022;SDS011;71575;49.908;18.356;2023-07-22T01:09:39;6.32;;;2.30;;
82022;SDS011;71575;49.908;18.356;2023-07-22T01:12:05;7.95;;;2.42;;
82022;SDS011;71575;49.908;18.356;2023-07-22T01:14:35;9.07;;;1.75;;
82022;SDS011;71575;49.908;18.356;2023-07-22T01:17:02;7.10;;;2.10;;
82022;SDS011;71575;49.908;18.356;2023-07-22T01:19:28;6.97;;;2.47;;
82022;SDS011;71575;49.908;18.356;2023-07-22T01:21:53;5.45;;;1.88;;
82022;SDS011;71575;49.908;18.356;2023-07-22T01:24:19;7.05;;;2.67;;
82022;SDS011;71575;49.908;18.356;2023-07-22T01:26:45;5.63;;;3.00;;
82022;SDS011;71575;49.908;18.356;2023-07-22T01:29:10;5.80;;;2.08;;
82022;SDS011;71575;49.908;18.356;2023-07-22T01:31:37;6.78;;;2.10;;
82022;SDS011;71575;49.908;18.356;2023-07-22T01:34:03;5.50;;;0.93;;
82022;SDS011;71575;49.908;18.356;2023-07-22T01:36:29;6.03;;;2.13;;
82022;SDS011;71575;49.908;18.356;2023-07-22T01:38:54;5.57;;;1.15;;
82022;SDS011;71575;49.908;18.356;2023-07-22T01:41:19;6.85;;;2.05;;
82022;SDS011;71575;49.908;18.356;2023-07-22T01:43:45;7.28;;;2.80;;
82022;SDS011;71575;49.908;18.356;2023-07-22T01:46:11;7.90;;;3.67;;
82022;SDS011;71575;49.908;18.356;2023-07-22T01:48:36;6.22;;;3.45;;
82022;SDS011;71575;49.908;18.356;2023-07-22T01:51:02;9.07;;;4.95;;
82022;SDS011;71575;49.908;18.356;2023-07-22T01:53:28;11.52;;;6.47;;
82022;SDS011;71575;49.908;18.356;2023-07-22T01:55:53;10.50;;;6.30;;
82022;SDS011;71575;49.908;18.356;2023-07-22T01:58:19;11.68;;;5.30;;
82022;SDS011;71575;49.908;18.356;2023-07-22T02:00:44;8.35;;;4.38;;
82022;SDS011;71575;49.908;18.356;2023-07-22T02:03:15;8.50;;;4.97;;
82022;SDS011;71575;49.908;18.356;2023-07-22T02:05:40;8.80;;;3.78;;
82022;SDS011;71575;49.908;18.356;2023-07-22T02:08:06;6.05;;;3.35;;
82022;SDS011;71575;49.908;18.356;2023-07-22T02:10:31;8.75;;;3.50;;
82022;SDS011;71575;49.908;18.356;2023-07-22T02:12:57;8.90;;;3.28;;
82022;SDS011;71575;49.908;18.356;2023-07-22T02:15:22;7.75;;;1.92;;
82022;SDS011;71575;49.908;18.356;2023-07-22T02:17:48;7.97;;;2.92;;
82022;SDS011;71575;49.908;18.356;2023-07-22T02:20:13;7.78;;;2.83;;
82022;SDS011;71575;49.908;18.356;2023-07-22T02:22:39;7.35;;;4.00;;
82022;SDS011;71575;49.908;18.356;2023-07-22T02:25:04;6.07;;;3.00;;
82022;SDS011;71575;49.908;18.356;2023-07-22T02:27:31;8.63;;;2.95;;
82022;SDS011;71575;49.908;18.356;2023-07-22T02:29:56;8.85;;;3.40;;
82022;SDS011;71575;49.908;18.356;2023-07-22T02:32:22;9.30;;;3.28;;
82022;SDS011;71575;49.908;18.356;2023-07-22T02:34:47;7.85;;;4.03;;
82022;SDS011;71575;49.908;18.356;2023-07-22T02:37:13;7.35;;;2.90;;
82022;SDS011;71575;49.908;18.356;2023-07-22T02:39:38;11.65;;;3.42;;
82022;SDS011;71575;49.908;18.356;2023-07-22T02:42:04;8.57;;;3.63;;
82022;SDS011;71575;49.908;18.356;2023-07-22T02:44:30;7.18;;;4.25;;
82022;SDS011;71575;49.908;18.356;2023-07-22T02:46:55;8.98;;;4.43;;
82022;SDS011;71575;49.908;18.356;2023-07-22T02:49:21;12.70;;;4.32;;
82022;SDS011;71575;49.908;18.356;2023-07-22T02:51:47;11.15;;;4.60;;
82022;SDS011;71575;49.908;18.356;2023-07-22T02:54:13;6.45;;;3.08;;
82022;SDS011;71575;49.908;18.356;2023-07-22T02:56:38;7.80;;;4.15;;
82022;SDS011;71575;49.908;18.356;2023-07-22T02:59:04;7.85;;;3.42;;
82022;SDS011;71575;49.908;18.356;2023-07-22T03:01:29;7.60;;;3.50;;
82022;SDS011;71575;49.908;18.356;2023-07-22T03:03:55;8.82;;;4.28;;
82022;SDS011;71575;49.908;18.356;2023-07-22T03:06:21;10.65;;;4.40;;
82022;SDS011;71575;49.908;18.356;2023-07-22T03:08:47;10.20;;;3.60;;
82022;SDS011;71575;49.908;18.356;2023-07-22T03:11:12;8.52;;;3.45;;
82022;SDS011;71575;49.908;18.356;2023-07-22T03:13:38;10.90;;;2.30;;
82022;SDS011;71575;49.908;18.356;2023-07-22T03:16:04;11.68;;;3.88;;
82022;SDS011;71575;49.908;18.356;2023-07-22T03:18:30;12.48;;;4.30;;
82022;SDS011;71575;49.908;18.356;2023-07-22T03:20:56;7.78;;;3.17;;
82022;SDS011;71575;49.908;18.356;2023-07-22T03:23:22;9.05;;;3.83;;
82022;SDS011;71575;49.908;18.356;2023-07-22T03:25:48;10.40;;;5.32;;
82022;SDS011;71575;49.908;18.356;2023-07-22T03:28:13;9.82;;;4.25;;
82022;SDS011;71575;49.908;18.356;2023-07-22T03:30:39;7.07;;;3.03;;
82022;SDS011;71575;49.908;18.356;2023-07-22T03:33:04;7.13;;;3.70;;
82022;SDS011;71575;49.908;18.356;2023-07-22T03:35:30;7.57;;;3.92;;
82022;SDS011;71575;49.908;18.356;2023-07-22T03:37:55;7.53;;;3.72;;
82022;SDS011;71575;49.908;18.356;2023-07-22T03:40:21;10.15;;;4.45;;
82022;SDS011;71575;49.908;18.356;2023-07-22T03:42:47;9.38;;;4.43;;
82022;SDS011;71575;49.908;18.356;2023-07-22T03:45:14;9.13;;;4.03;;
82022;SDS011;71575;49.908;18.356;2023-07-22T03:47:39;9.70;;;4.65;;
82022;SDS011;71575;49.908;18.356;2023-07-22T03:50:05;7.43;;;4.10;;
82022;SDS011;71575;49.908;18.356;2023-07-22T03:52:31;11.02;;;5.07;;
82022;SDS011;71575;49.908;18.356;2023-07-22T03:54:57;9.57;;;4.88;;
82022;SDS011;71575;49.908;18.356;2023-07-22T03:57:29;8.93;;;4.15;;
82022;SDS011;71575;49.908;18.356;2023-07-22T03:59:55;13.23;;;4.72;;
82022;SDS011;71575;49.908;18.356;2023-07-22T04:02:20;10.57;;;4.78;;
82022;SDS011;71575;49.908;18.356;2023-07-22T04:04:46;13.52;;;5.38;;
82022;SDS011;71575;49.908;18.356;2023-07-22T04:07:11;10.38;;;6.07;;
82022;SDS011;71575;49.908;18.356;2023-07-22T04:09:37;11.18;;;4.43;;
82022;SDS011;71575;49.908;18.356;2023-07-22T04:12:03;12.00;;;4.63;;
82022;SDS011;71575;49.908;18.356;2023-07-22T04:14:29;12.40;;;4.70;;
82022;SDS011;71575;49.908;18.356;2023-07-22T04:16:54;12.52;;;3.70;;
82022;SDS011;71575;49.908;18.356;2023-07-22T04:19:20;12.07;;;4.43;;
82022;SDS011;71575;49.908;18.356;2023-07-22T04:21:46;12.00;;;3.75;;
82022;SDS011;71575;49.908;18.356;2023-07-22T04:24:12;16.70;;;5.35;;
82022;SDS011;71575;49.908;18.356;2023-07-22T04:26:37;12.13;;;4.70;;
82022;SDS011;71575;49.908;18.356;2023-07-22T04:29:03;11.73;;;4.20;;
82022;SDS011;71575;49.908;18.356;2023-07-22T04:31:28;11.43;;;4.60;;
82022;SDS011;71575;49.908;18.356;2023-07-22T04:33:54;10.15;;;4.32;;
82022;SDS011;71575;49.908;18.356;2023-07-22T04:36:19;12.18;;;4.55;;
82022;SDS011;71575;49.908;18.356;2023-07-22T04:38:45;9.00;;;3.58;;
82022;SDS011;71575;49.908;18.356;2023-07-22T04:41:10;10.10;;;4.80;;
82022;SDS011;71575;49.908;18.356;2023-07-22T04:43:36;10.05;;;3.92;;
82022;SDS011;71575;49.908;18.356;2023-07-22T04:46:02;12.13;;;3.63;;
82022;SDS011;71575;49.908;18.356;2023-07-22T04:48:27;10.90;;;4.38;;
82022;SDS011;71575;49.908;18.356;2023-07-22T04:50:54;12.45;;;4.25;;
82022;SDS011;71575;49.908;18.356;2023-07-22T04:53:20;11.05;;;4.20;;
82022;SDS011;71575;49.908;18.356;2023-07-22T04:55:46;11.60;;;4.00;;
82022;SDS011;71575;49.908;18.356;2023-07-22T04:58:12;8.30;;;3.13;;
82022;SDS011;71575;49.908;18.356;2023-07-22T05:00:37;11.45;;;4.45;;
82022;SDS011;71575;49.908;18.356;2023-07-22T05:03:03;12.82;;;5.68;;
82022;SDS011;71575;49.908;18.356;2023-07-22T05:05:29;12.05;;;4.15;;
82022;SDS011;71575;49.908;18.356;2023-07-22T05:07:55;11.80;;;5.43;;
82022;SDS011;71575;49.908;18.356;2023-07-22T05:10:20;10.43;;;6.18;;
82022;SDS011;71575;49.908;18.356;2023-07-22T05:12:46;8.10;;;3.75;;
82022;SDS011;71575;49.908;18.356;2023-07-22T05:15:12;10.77;;;4.00;;
82022;SDS011;71575;49.908;18.356;2023-07-22T05:17:38;15.25;;;4.20;;
82022;SDS011;71575;49.908;18.356;2023-07-22T05:20:04;9.35;;;4.07;;
82022;SDS011;71575;49.908;18.356;2023-07-22T05:22:30;11.95;;;4.40;;
82022;SDS011;71575;49.908;18.356;2023-07-22T05:24:56;13.02;;;4.40;;
82022;SDS011;71575;49.908;18.356;2023-07-22T05:27:21;11.95;;;3.83;;
82022;SDS011;71575;49.908;18.356;2023-07-22T05:29:47;8.68;;;4.13;;
82022;SDS011;71575;49.908;18.356;2023-07-22T05:32:12;9.15;;;3.70;;
82022;SDS011;71575;49.908;18.356;2023-07-22T05:34:38;7.70;;;4.35;;
82022;SDS011;71575;49.908;18.356;2023-07-22T05:37:04;8.70;;;4.03;;
82022;SDS011;71575;49.908;18.356;2023-07-22T05:39:29;10.15;;;4.05;;
82022;SDS011;71575;49.908;18.356;2023-07-22T05:41:55;11.48;;;5.13;;
82022;SDS011;71575;49.908;18.356;2023-07-22T05:44:21;9.75;;;4.13;;
82022;SDS011;71575;49.908;18.356;2023-07-22T05:46:46;9.73;;;4.05;;
82022;SDS011;71575;49.908;18.356;2023-07-22T05:49:12;7.90;;;4.43;;
82022;SDS011;71575;49.908;18.356;2023-07-22T05:51:37;10.50;;;4.47;;
82022;SDS011;71575;49.908;18.356;2023-07-22T05:54:03;8.25;;;4.25;;
82022;SDS011;71575;49.908;18.356;2023-07-22T05:56:28;7.45;;;4.60;;
82022;SDS011;71575;49.908;18.356;2023-07-22T05:58:54;8.23;;;4.78;;
82022;SDS011;71575;49.908;18.356;2023-07-22T06:01:20;11.43;;;4.63;;
82022;SDS011;71575;49.908;18.356;2023-07-22T06:03:45;9.45;;;4.25;;
82022;SDS011;71575;49.908;18.356;2023-07-22T06:06:11;10.20;;;4.40;;
82022;SDS011;71575;49.908;18.356;2023-07-22T06:08:36;6.75;;;3.90;;
82022;SDS011;71575;49.908;18.356;2023-07-22T06:11:17;13.40;;;6.18;;
82022;SDS011;71575;49.908;18.356;2023-07-22T06:13:43;8.15;;;4.18;;
82022;SDS011;71575;49.908;18.356;2023-07-22T06:16:08;5.80;;;3.90;;
82022;SDS011;71575;49.908;18.356;2023-07-22T06:18:34;9.63;;;4.35;;
82022;SDS011;71575;49.908;18.356;2023-07-22T06:20:59;6.75;;;3.65;;
82022;SDS011;71575;49.908;18.356;2023-07-22T06:23:41;7.53;;;3.85;;
82022;SDS011;71575;49.908;18.356;2023-07-22T06:26:21;10.65;;;3.45;;
82022;SDS011;71575;49.908;18.356;2023-07-22T06:29:02;7.07;;;3.78;;
82022;SDS011;71575;49.908;18.356;2023-07-22T06:31:27;8.73;;;4.55;;
82022;SDS011;71575;49.908;18.356;2023-07-22T06:33:53;8.27;;;3.28;;
82022;SDS011;71575;49.908;18.356;2023-07-22T06:36:33;7.65;;;3.67;;
82022;SDS011;71575;49.908;18.356;2023-07-22T06:39:13;8.55;;;5.13;;
82022;SDS011;71575;49.908;18.356;2023-07-22T06:41:39;7.40;;;3.85;;
82022;SDS011;71575;49.908;18.356;2023-07-22T06:44:05;7.03;;;4.00;;
82022;SDS011;71575;49.908;18.356;2023-07-22T06:46:45;8.27;;;4.72;;
82022;SDS011;71575;49.908;18.356;2023-07-22T06:49:25;13.02;;;7.65;;
82022;SDS011;71575;49.908;18.356;2023-07-22T06:51:51;7.78;;;4.13;;
82022;SDS011;71575;49.908;18.356;2023-07-22T06:54:17;8.15;;;5.18;;
82022;SDS011;71575;49.908;18.356;2023-07-22T06:56:43;8.40;;;4.78;;
82022;SDS011;71575;49.908;18.356;2023-07-22T06:59:10;8.25;;;2.63;;
82022;SDS011;71575;49.908;18.356;2023-07-22T07:01:50;6.57;;;2.90;;
82022;SDS011;71575;49.908;18.356;2023-07-22T07:04:30;9.02;;;5.07;;
82022;SDS011;71575;49.908;18.356;2023-07-22T07:06:56;8.38;;;4.22;;
82022;SDS011;71575;49.908;18.356;2023-07-22T07:09:21;8.00;;;4.25;;
82022;SDS011;71575;49.908;18.356;2023-07-22T07:12:02;8.60;;;4.38;;
82022;SDS011;71575;49.908;18.356;2023-07-22T07:14:43;7.57;;;3.85;;
82022;SDS011;71575;49.908;18.356;2023-07-22T07:17:08;8.80;;;7.68;;
82022;SDS011;71575;49.908;18.356;2023-07-22T07:19:34;8.70;;;4.80;;
82022;SDS011;71575;49.908;18.356;2023-07-22T07:22:00;8.18;;;3.67;;
82022;SDS011;71575;49.908;18.356;2023-07-22T07:24:25;10.82;;;5.82;;
82022;SDS011;71575;49.908;18.356;2023-07-22T07:26:51;6.72;;;4.43;;
82022;SDS011;71575;49.908;18.356;2023-07-22T07:29:16;7.78;;;4.85;;
82022;SDS011;71575;49.908;18.356;2023-07-22T07:31:42;7.28;;;4.65;;
82022;SDS011;71575;49.908;18.356;2023-07-22T07:34:08;8.63;;;3.50;;
82022;SDS011;71575;49.908;18.356;2023-07-22T07:36:49;8.30;;;3.92;;
82022;SDS011;71575;49.908;18.356;2023-07-22T07:39:29;8.25;;;4.20;;
82022;SDS011;71575;49.908;18.356;2023-07-22T07:41:55;7.32;;;4.03;;
82022;SDS011;71575;49.908;18.356;2023-07-22T07:44:20;6.90;;;2.10;;
82022;SDS011;71575;49.908;18.356;2023-07-22T07:47:00;10.70;;;4.07;;
82022;SDS011;71575;49.908;18.356;2023-07-22T07:49:41;7.45;;;5.25;;
82022;SDS011;71575;49.908;18.356;2023-07-22T07:52:21;7.25;;;4.13;;
82022;SDS011;71575;49.908;18.356;2023-07-22T07:55:01;6.05;;;3.80;;
82022;SDS011;71575;49.908;18.356;2023-07-22T07:57:42;9.15;;;4.40;;
82022;SDS011;71575;49.908;18.356;2023-07-22T08:00:22;7.35;;;3.33;;
82022;SDS011;71575;49.908;18.356;2023-07-22T08:03:02;8.73;;;3.65;;
82022;SDS011;71575;49.908;18.356;2023-07-22T08:05:43;6.95;;;4.03;;
82022;SDS011;71575;49.908;18.356;2023-07-22T08:08:23;5.93;;;4.45;;
82022;SDS011;71575;49.908;18.356;2023-07-22T08:13:27;8.40;;;4.00;;
82022;SDS011;71575;49.908;18.356;2023-07-22T08:16:08;9.77;;;4.20;;
82022;SDS011;71575;49.908;18.356;2023-07-22T08:18:49;7.28;;;3.70;;
82022;SDS011;71575;49.908;18.356;2023-07-22T08:21:29;6.78;;;3.88;;
82022;SDS011;71575;49.908;18.356;2023-07-22T08:24:10;8.25;;;4.63;;
82022;SDS011;71575;49.908;18.356;2023-07-22T08:26:50;6.32;;;3.75;;
82022;SDS011;71575;49.908;18.356;2023-07-22T08:29:31;5.55;;;3.28;;
82022;SDS011;71575;49.908;18.356;2023-07-22T08:32:12;6.95;;;4.10;;
82022;SDS011;71575;49.908;18.356;2023-07-22T08:34:52;6.43;;;3.35;;
82022;SDS011;71575;49.908;18.356;2023-07-22T08:37:33;7.22;;;2.85;;
82022;SDS011;71575;49.908;18.356;2023-07-22T08:40:13;5.50;;;2.42;;
82022;SDS011;71575;49.908;18.356;2023-07-22T08:42:53;7.75;;;2.65;;
82022;SDS011;71575;49.908;18.356;2023-07-22T08:45:34;5.28;;;2.70;;
82022;SDS011;71575;49.908;18.356;2023-07-22T08:48:17;6.05;;;3.08;;
82022;SDS011;71575;49.908;18.356;2023-07-22T08:51:06;5.40;;;3.33;;
82022;SDS011;71575;49.908;18.356;2023-07-22T08:53:50;5.72;;;3.05;;
82022;SDS011;71575;49.908;18.356;2023-07-22T08:56:31;4.82;;;1.33;;
82022;SDS011;71575;49.908;18.356;2023-07-22T08:59:11;6.38;;;3.33;;
82022;SDS011;71575;49.908;18.356;2023-07-22T09:01:52;5.28;;;2.97;;
82022;SDS011;71575;49.908;18.356;2023-07-22T09:04:33;6.10;;;2.00;;
82022;SDS011;71575;49.908;18.356;2023-07-22T09:06:59;5.43;;;2.72;;
82022;SDS011;71575;49.908;18.356;2023-07-22T09:09:24;4.75;;;2.55;;
82022;SDS011;71575;49.908;18.356;2023-07-22T09:12:05;5.22;;;3.25;;
82022;SDS011;71575;49.908;18.356;2023-07-22T09:14:46;5.05;;;2.97;;
82022;SDS011;71575;49.908;18.356;2023-07-22T09:17:27;5.85;;;4.13;;
82022;SDS011;71575;49.908;18.356;2023-07-22T09:20:08;6.75;;;2.70;;
82022;SDS011;71575;49.908;18.356;2023-07-22T09:22:49;8.23;;;3.65;;
82022;SDS011;71575;49.908;18.356;2023-07-22T09:28:11;5.25;;;1.23;;
82022;SDS011;71575;49.908;18.356;2023-07-22T09:30:51;4.82;;;3.00;;
82022;SDS011;71575;49.908;18.356;2023-07-22T09:33:41;4.75;;;2.97;;
82022;SDS011;71575;49.908;18.356;2023-07-22T09:36:21;6.93;;;3.75;;
82022;SDS011;71575;49.908;18.356;2023-07-22T09:39:02;5.95;;;2.58;;
82022;SDS011;71575;49.908;18.356;2023-07-22T09:41:43;4.50;;;2.58;;
82022;SDS011;71575;49.908;18.356;2023-07-22T09:44:23;4.30;;;2.90;;
82022;SDS011;71575;49.908;18.356;2023-07-22T09:47:08;4.80;;;1.48;;
82022;SDS011;71575;49.908;18.356;2023-07-22T09:49:48;7.47;;;3.08;;
82022;SDS011;71575;49.908;18.356;2023-07-22T09:52:29;5.80;;;3.58;;
82022;SDS011;71575;49.908;18.356;2023-07-22T09:55:10;4.30;;;2.15;;
82022;SDS011;71575;49.908;18.356;2023-07-22T09:57:35;5.38;;;3.35;;
82022;SDS011;71575;49.908;18.356;2023-07-22T10:00:02;5.38;;;2.53;;
82022;SDS011;71575;49.908;18.356;2023-07-22T10:02:43;4.57;;;1.40;;
82022;SDS011;71575;49.908;18.356;2023-07-22T10:05:24;5.97;;;2.65;;
82022;SDS011;71575;49.908;18.356;2023-07-22T10:07:51;5.72;;;2.85;;
82022;SDS011;71575;49.908;18.356;2023-07-22T10:10:26;5.43;;;2.97;;
82022;SDS011;71575;49.908;18.356;2023-07-22T10:13:09;5.38;;;2.53;;
82022;SDS011;71575;49.908;18.356;2023-07-22T10:15:50;5.45;;;2.65;;
82022;SDS011;71575;49.908;18.356;2023-07-22T10:18:31;5.38;;;3.45;;
82022;SDS011;71575;49.908;18.356;2023-07-22T10:21:12;6.10;;;3.35;;
82022;SDS011;71575;49.908;18.356;2023-07-22T10:23:53;5.68;;;3.03;;
82022;SDS011;71575;49.908;18.356;2023-07-22T10:26:19;4.72;;;2.60;;
82022;SDS011;71575;49.908;18.356;2023-07-22T10:28:45;5.20;;;3.05;;
82022;SDS011;71575;49.908;18.356;2023-07-22T10:31:29;5.95;;;2.13;;
82022;SDS011;71575;49.908;18.356;2023-07-22T10:34:10;4.70;;;2.58;;
82022;SDS011;71575;49.908;18.356;2023-07-22T10:36:51;4.75;;;2.08;;
82022;SDS011;71575;49.908;18.356;2023-07-22T10:39:31;5.72;;;2.60;;
82022;SDS011;71575;49.908;18.356;2023-07-22T10:42:16;5.35;;;2.60;;
82022;SDS011;71575;49.908;18.356;2023-07-22T10:45:03;5.65;;;1.40;;
82022;SDS011;71575;49.908;18.356;2023-07-22T10:47:59;6.20;;;3.47;;
82022;SDS011;71575;49.908;18.356;2023-07-22T10:50:44;4.13;;;1.10;;
82022;SDS011;71575;49.908;18.356;2023-07-22T11:01:31;5.07;;;3.00;;
82022;SDS011;71575;49.908;18.356;2023-07-22T11:06:51;4.72;;;2.67;;
82022;SDS011;71575;49.908;18.356;2023-07-22T11:12:17;5.72;;;2.60;;
82022;SDS011;71575;49.908;18.356;2023-07-22T11:15:04;5.03;;;2.95;;
82022;SDS011;71575;49.908;18.356;2023-07-22T11:17:44;7.45;;;3.25;;
82022;SDS011;71575;49.908;18.356;2023-07-22T11:20:25;5.25;;;3.25;;
82022;SDS011;71575;49.908;18.356;2023-07-22T11:22:55;6.75;;;4.63;;
82022;SDS011;71575;49.908;18.356;2023-07-22T11:25:22;7.20;;;4.88;;
82022;SDS011;71575;49.908;18.356;2023-07-22T11:28:03;5.82;;;4.50;;
82022;SDS011;71575;49.908;18.356;2023-07-22T11:30:44;5.28;;;2.33;;
82022;SDS011;71575;49.908;18.356;2023-07-22T11:33:25;6.35;;;5.47;;
82022;SDS011;71575;49.908;18.356;2023-07-22T11:36:05;7.00;;;3.42;;
82022;SDS011;71575;49.908;18.356;2023-07-22T11:38:46;7.45;;;5.40;;
82022;SDS011;71575;49.908;18.356;2023-07-22T11:41:26;7.75;;;6.35;;
82022;SDS011;71575;49.908;18.356;2023-07-22T11:44:07;7.82;;;3.83;;
82022;SDS011;71575;49.908;18.356;2023-07-22T11:49:41;5.88;;;3.42;;
82022;SDS011;71575;49.908;18.356;2023-07-22T11:52:22;5.25;;;2.95;;
82022;SDS011;71575;49.908;18.356;2023-07-22T11:55:02;6.53;;;3.20;;
82022;SDS011;71575;49.908;18.356;2023-07-22T11:57:43;6.13;;;3.80;;
82022;SDS011;71575;49.908;18.356;2023-07-22T12:00:17;5.63;;;3.47;;
82022;SDS011;71575;49.908;18.356;2023-07-22T12:02:42;6.80;;;3.88;;
82022;SDS011;71575;49.908;18.356;2023-07-22T12:05:23;5.60;;;3.85;;
82022;SDS011;71575;49.908;18.356;2023-07-22T12:08:03;5.13;;;3.55;;
82022;SDS011;71575;49.908;18.356;2023-07-22T12:10:55;5.95;;;4.03;;
82022;SDS011;71575;49.908;18.356;2023-07-22T12:13:36;5.20;;;3.00;;
82022;SDS011;71575;49.908;18.356;2023-07-22T12:16:21;6.22;;;3.78;;
82022;SDS011;71575;49.908;18.356;2023-07-22T12:19:03;6.30;;;3.63;;
82022;SDS011;71575;49.908;18.356;2023-07-22T12:21:29;5.68;;;3.92;;
82022;SDS011;71575;49.908;18.356;2023-07-22T12:23:54;4.95;;;2.17;;
82022;SDS011;71575;49.908;18.356;2023-07-22T12:26:35;7.85;;;7.15;;
82022;SDS011;71575;49.908;18.356;2023-07-22T12:29:15;5.78;;;3.63;;
82022;SDS011;71575;49.908;18.356;2023-07-22T12:31:55;5.43;;;3.53;;
82022;SDS011;71575;49.908;18.356;2023-07-22T12:34:35;6.45;;;2.08;;
82022;SDS011;71575;49.908;18.356;2023-07-22T12:37:16;6.32;;;1.77;;
82022;SDS011;71575;49.908;18.356;2023-07-22T12:39:56;5.68;;;3.28;;
82022;SDS011;71575;49.908;18.356;2023-07-22T12:42:37;5.57;;;3.15;;
82022;SDS011;71575;49.908;18.356;2023-07-22T12:45:17;5.25;;;3.70;;
82022;SDS011;71575;49.908;18.356;2023-07-22T12:47:58;6.25;;;3.45;;
82022;SDS011;71575;49.908;18.356;2023-07-22T12:50:38;5.30;;;2.95;;
82022;SDS011;71575;49.908;18.356;2023-07-22T12:53:18;5.15;;;2.45;;
82022;SDS011;71575;49.908;18.356;2023-07-22T12:55:59;6.10;;;2.78;;
82022;SDS011;71575;49.908;18.356;2023-07-22T12:58:39;5.10;;;3.15;;
82022;SDS011;71575;49.908;18.356;2023-07-22T13:01:19;6.32;;;3.35;;
82022;SDS011;71575;49.908;18.356;2023-07-22T13:03:45;5.50;;;2.95;;
82022;SDS011;71575;49.908;18.356;2023-07-22T13:06:11;5.50;;;2.60;;
82022;SDS011;71575;49.908;18.356;2023-07-22T13:08:37;5.53;;;2.72;;
82022;SDS011;71575;49.908;18.356;2023-07-22T13:11:02;4.57;;;2.85;;
82022;SDS011;71575;49.908;18.356;2023-07-22T13:13:42;5.53;;;3.92;;
82022;SDS011;71575;49.908;18.356;2023-07-22T13:16:23;5.25;;;3.40;;
82022;SDS011;71575;49.908;18.356;2023-07-22T13:18:48;5.00;;;2.28;;
82022;SDS011;71575;49.908;18.356;2023-07-22T13:21:14;5.15;;;2.50;;
82022;SDS011;71575;49.908;18.356;2023-07-22T13:23:56;5.22;;;3.17;;
82022;SDS011;71575;49.908;18.356;2023-07-22T13:26:36;5.40;;;3.40;;
82022;SDS011;71575;49.908;18.356;2023-07-22T13:29:16;4.60;;;1.08;;
82022;SDS011;71575;49.908;18.356;2023-07-22T13:31:57;4.68;;;2.92;;
82022;SDS011;71575;49.908;18.356;2023-07-22T13:34:37;5.82;;;2.63;;
82022;SDS011;71575;49.908;18.356;2023-07-22T13:37:17;4.75;;;2.83;;
82022;SDS011;71575;49.908;18.356;2023-07-22T13:39:58;5.30;;;2.85;;
82022;SDS011;71575;49.908;18.356;2023-07-22T13:42:38;6.90;;;3.20;;
82022;SDS011;71575;49.908;18.356;2023-07-22T13:45:18;4.25;;;2.58;;
82022;SDS011;71575;49.908;18.356;2023-07-22T13:47:59;6.00;;;2.35;;
82022;SDS011;71575;49.908;18.356;2023-07-22T13:50:39;4.32;;;2.00;;
82022;SDS011;71575;49.908;18.356;2023-07-22T13:53:20;6.25;;;2.80;;
82022;SDS011;71575;49.908;18.356;2023-07-22T13:56:00;4.65;;;2.33;;
82022;SDS011;71575;49.908;18.356;2023-07-22T13:58:40;4.60;;;2.92;;
82022;SDS011;71575;49.908;18.356;2023-07-22T14:01:21;5.00;;;2.53;;
82022;SDS011;71575;49.908;18.356;2023-07-22T14:04:01;5.07;;;2.83;;
82022;SDS011;71575;49.908;18.356;2023-07-22T14:06:41;5.10;;;2.75;;
82022;SDS011;71575;49.908;18.356;2023-07-22T14:09:22;4.70;;;2.60;;
82022;SDS011;71575;49.908;18.356;2023-07-22T14:12:02;4.45;;;2.75;;
82022;SDS011;71575;49.908;18.356;2023-07-22T14:14:43;5.15;;;2.67;;
82022;SDS011;71575;49.908;18.356;2023-07-22T14:17:09;4.47;;;1.00;;
82022;SDS011;71575;49.908;18.356;2023-07-22T14:19:34;4.88;;;2.92;;
82022;SDS011;71575;49.908;18.356;2023-07-22T14:22:00;5.60;;;3.13;;
82022;SDS011;71575;49.908;18.356;2023-07-22T14:24:26;6.32;;;2.90;;
82022;SDS011;71575;49.908;18.356;2023-07-22T14:26:52;6.18;;;2.50;;
82022;SDS011;71575;49.908;18.356;2023-07-22T14:29:18;4.55;;;2.30;;
82022;SDS011;71575;49.908;18.356;2023-07-22T14:31:59;5.60;;;3.75;;
82022;SDS011;71575;49.908;18.356;2023-07-22T14:34:39;6.30;;;3.10;;
82022;SDS011;71575;49.908;18.356;2023-07-22T14:37:20;4.63;;;2.60;;
82022;SDS011;71575;49.908;18.356;2023-07-22T14:40:00;5.95;;;2.75;;
82022;SDS011;71575;49.908;18.356;2023-07-22T14:42:40;5.97;;;2.90;;
82022;SDS011;71575;49.908;18.356;2023-07-22T14:45:06;7.60;;;2.58;;
82022;SDS011;71575;49.908;18.356;2023-07-22T14:47:32;4.72;;;1.40;;
82022;SDS011;71575;49.908;18.356;2023-07-22T14:50:14;6.78;;;3.03;;
82022;SDS011;71575;49.908;18.356;2023-07-22T14:52:54;5.63;;;1.60;;
82022;SDS011;71575;49.908;18.356;2023-07-22T14:55:34;6.05;;;2.08;;
82022;SDS011;71575;49.908;18.356;2023-07-22T14:58:14;5.90;;;2.58;;
82022;SDS011;71575;49.908;18.356;2023-07-22T15:00:55;5.05;;;2.45;;
82022;SDS011;71575;49.908;18.356;2023-07-22T15:03:38;5.30;;;2.38;;
82022;SDS011;71575;49.908;18.356;2023-07-22T15:06:18;5.30;;;1.20;;
82022;SDS011;71575;49.908;18.356;2023-07-22T15:08:59;5.53;;;1.92;;
82022;SDS011;71575;49.908;18.356;2023-07-22T15:11:43;6.10;;;1.95;;
82022;SDS011;71575;49.908;18.356;2023-07-22T15:14:23;4.35;;;1.08;;
82022;SDS011;71575;49.908;18.356;2023-07-22T15:16:49;4.97;;;2.65;;
82022;SDS011;71575;49.908;18.356;2023-07-22T15:19:14;5.05;;;2.20;;
82022;SDS011;71575;49.908;18.356;2023-07-22T15:21:55;5.18;;;2.65;;
82022;SDS011;71575;49.908;18.356;2023-07-22T15:24:35;5.50;;;3.50;;